createdAt,value
2019-01-18T00:01:06.887Z,96917.38
2019-01-18T00:03:35.050Z,96873.03
2019-01-18T00:06:03.240Z,96922.19
2019-01-18T00:08:31.412Z,96924.38
2019-01-18T00:10:59.591Z,96936.42
2019-01-18T00:13:27.724Z,96923.35
2019-01-18T00:15:55.908Z,96924.69
2019-01-18T00:21:11.252Z,96925.57
2019-01-18T00:23:39.423Z,96933.52
2019-01-18T00:26:07.574Z,96945.73
2019-01-18T00:28:35.704Z,96759.75
2019-01-18T00:31:03.869Z,96947.53
2019-01-18T00:33:32.012Z,96946.91
2019-01-18T00:36:00.164Z,96946.82
2019-01-18T00:38:28.316Z,96946.82
2019-01-18T00:40:56.507Z,96935.11
2019-01-18T00:43:24.689Z,96943.38
2019-01-18T00:45:52.849Z,96945.25
2019-01-18T00:48:21.144Z,96942.03
2019-01-18T00:50:49.371Z,96946.82
2019-01-18T00:53:17.549Z,96947.22
2019-01-18T00:55:45.704Z,96942.89
2019-01-18T00:58:14.016Z,96941.06
2019-01-18T01:00:42.224Z,96949.75
2019-01-18T01:03:10.418Z,96945.88
2019-01-18T01:05:38.574Z,96954.85
2019-01-18T01:08:06.787Z,96963.20
2019-01-18T01:10:35.049Z,96968.55
2019-01-18T01:13:22.712Z,96978.01
2019-01-18T01:15:50.863Z,96978.23
2019-01-18T01:18:19.023Z,96977.16
2019-01-18T01:20:47.181Z,96987.60
2019-01-18T01:23:15.329Z,97000.84
2019-01-18T01:25:43.468Z,96998.08
2019-01-18T01:28:11.625Z,96997.98
2019-01-18T01:30:39.785Z,96999.02
2019-01-18T01:35:56.631Z,97005.79
2019-01-18T01:38:43.861Z,97007.53
2019-01-18T01:41:31.094Z,97008.25
2019-01-18T01:43:59.297Z,97004.23
2019-01-18T01:46:27.483Z,97004.45
2019-01-18T01:48:55.657Z,97011.29
2019-01-18T01:51:42.930Z,97017.22
2019-01-18T01:54:11.021Z,97020.66
2019-01-18T01:56:39.342Z,97018.95
2019-01-18T01:59:26.399Z,97028.95
2019-01-18T02:01:54.542Z,97035.48
2019-01-18T02:04:22.700Z,97036.67
2019-01-18T02:06:50.937Z,97046.05
2019-01-18T02:09:38.156Z,97042.80
2019-01-18T02:12:25.428Z,97043.82
2019-01-18T02:14:53.603Z,97047.79
2019-01-18T02:17:21.760Z,97049.25
2019-01-18T02:22:29.839Z,97046.05
2019-01-18T02:27:32.287Z,97053.27
2019-01-18T02:30:00.438Z,97053.35
2019-01-18T02:32:28.658Z,97053.89
2019-01-18T02:34:56.815Z,97051.39
2019-01-18T02:37:24.997Z,97051.39
2019-01-18T02:39:53.192Z,97048.95
2019-01-18T02:42:21.337Z,97057.37
2019-01-18T02:45:08.391Z,97009.64
2019-01-18T02:47:36.534Z,97059.88
2019-01-18T02:50:05.374Z,97070.28
2019-01-18T02:52:33.530Z,97072.55
2019-01-18T02:55:28.426Z,97075.54
2019-01-18T02:57:50.699Z,97087.23
2019-01-18T03:00:19.832Z,97093.97
2019-01-18T03:02:47.993Z,97100.20
2019-01-18T03:05:16.738Z,97103.72
2019-01-18T03:07:44.867Z,97100.05
2019-01-18T03:10:36.264Z,97100.97
2019-01-18T03:13:04.403Z,97103.59
2019-01-18T03:15:32.572Z,97107.43
2019-01-18T03:18:19.634Z,97114.05
2019-01-18T03:20:47.776Z,97108.38
2019-01-18T03:23:15.952Z,97104.32
2019-01-18T03:25:44.132Z,97112.66
2019-01-18T03:28:12.304Z,97112.86
2019-01-18T03:33:27.605Z,97119.48
2019-01-18T03:36:14.657Z,97116.00
2019-01-18T03:38:42.830Z,97121.97
2019-01-18T03:41:10.986Z,97122.05
2019-01-18T03:43:39.147Z,97128.20
2019-01-18T03:46:07.274Z,97129.38
2019-01-18T03:48:35.438Z,97127.70
2019-01-18T03:51:03.589Z,97132.94
2019-01-18T03:53:31.777Z,97134.59
2019-01-18T03:55:59.944Z,97138.34
2019-01-18T03:58:28.093Z,97147.97
2019-01-18T04:00:56.248Z,97151.68
2019-01-18T04:03:24.423Z,97154.81
2019-01-18T04:05:53.050Z,97157.75
2019-01-18T04:13:46.408Z,97166.09
2019-01-18T04:16:14.602Z,97166.86
2019-01-18T04:18:42.749Z,97177.41
2019-01-18T04:21:10.965Z,97171.38
2019-01-18T04:23:40.276Z,97181.05
2019-01-18T04:26:08.427Z,97177.95
2019-01-18T04:28:37.854Z,97174.36
2019-01-18T04:31:06.091Z,97181.43
2019-01-18T04:33:34.290Z,97183.73
2019-01-18T04:36:03.331Z,97188.77
2019-01-18T04:38:32.171Z,97193.09
2019-01-18T04:41:00.530Z,97196.80
2019-01-18T04:43:28.736Z,97208.36
2019-01-18T04:45:57.044Z,97220.41
2019-01-18T04:48:26.493Z,97215.92
2019-01-18T04:50:54.688Z,97215.66
2019-01-18T04:53:22.869Z,97223.53
2019-01-18T04:55:51.041Z,97220.25
2019-01-18T04:58:19.226Z,97229.05
2019-01-18T05:00:47.408Z,97232.33
2019-01-18T05:03:15.565Z,97232.03
2019-01-18T05:05:43.862Z,97237.38
2019-01-18T05:08:12.045Z,97240.86
2019-01-18T05:10:40.230Z,97248.20
2019-01-18T05:13:08.403Z,97245.67
2019-01-18T05:15:36.561Z,97255.51
2019-01-18T05:18:04.750Z,97254.02
2019-01-18T05:20:32.904Z,97263.08
2019-01-18T05:23:01.152Z,97270.53
2019-01-18T05:25:29.338Z,97278.77
2019-01-18T05:27:57.485Z,97276.45
2019-01-18T05:30:26.564Z,97278.41
2019-01-18T05:32:54.733Z,97282.84
2019-01-18T05:35:22.885Z,97292.26
2019-01-18T05:37:51.064Z,97295.54
2019-01-18T05:40:19.518Z,97302.92
2019-01-18T05:42:47.694Z,97304.80
2019-01-18T05:45:16.728Z,97305.91
2019-01-18T05:47:44.865Z,97312.83
2019-01-18T05:50:17.085Z,97319.02
2019-01-18T05:52:45.250Z,97321.40
2019-01-18T05:55:13.571Z,97323.91
2019-01-18T05:57:41.726Z,97327.55
2019-01-18T06:00:12.570Z,97330.53
2019-01-18T06:02:40.735Z,97340.70
2019-01-18T06:05:10.180Z,97350.11
2019-01-18T06:07:38.333Z,97347.20
2019-01-18T06:10:06.552Z,97350.38
2019-01-18T06:12:34.714Z,97350.68
2019-01-18T06:15:02.869Z,97350.48
2019-01-18T06:17:31.067Z,97362.22
2019-01-18T06:19:59.208Z,97368.38
2019-01-18T06:22:27.393Z,97377.92
2019-01-18T06:24:55.684Z,97374.77
2019-01-18T06:27:23.872Z,97380.36
2019-01-18T06:29:52.009Z,97388.63
2019-01-18T06:32:20.208Z,97383.94
2019-01-18T06:34:48.381Z,97397.76
2019-01-18T06:37:16.543Z,97393.87
2019-01-18T06:39:44.769Z,97397.62
2019-01-18T06:42:12.986Z,97408.33
2019-01-18T06:44:41.162Z,97403.62
2019-01-18T06:47:09.346Z,97411.68
2019-01-18T06:49:37.541Z,97414.36
2019-01-18T06:52:05.782Z,97411.81
2019-01-18T06:54:33.952Z,97429.20
2019-01-18T06:57:02.145Z,97421.35
2019-01-18T06:59:30.405Z,97434.80
2019-01-18T07:01:58.582Z,97436.04
2019-01-18T07:04:26.836Z,97445.27
2019-01-18T07:06:54.992Z,97456.27
2019-01-18T07:09:23.196Z,97457.31
2019-01-18T07:11:51.379Z,97455.73
2019-01-18T07:14:19.562Z,97464.84
2019-01-18T07:16:47.701Z,97468.77
2019-01-18T07:19:15.884Z,97474.95
2019-01-18T07:21:44.004Z,97474.48
2019-01-18T07:24:12.140Z,97477.16
2019-01-18T07:26:40.271Z,97478.22
2019-01-18T07:29:08.465Z,97474.59
2019-01-18T07:31:36.600Z,97474.11
2019-01-18T07:34:04.760Z,97481.11
2019-01-18T07:36:32.895Z,97485.30
2019-01-18T07:39:01.037Z,97487.27
2019-01-18T07:41:29.175Z,97490.71
2019-01-18T07:43:57.320Z,97484.70
2019-01-18T07:46:25.455Z,97488.84
2019-01-18T07:48:53.653Z,97493.09
2019-01-18T07:51:21.789Z,97495.83
2019-01-18T07:53:49.949Z,97500.08
2019-01-18T07:56:18.071Z,97507.52
2019-01-18T07:58:46.233Z,97506.09
2019-01-18T08:01:14.377Z,97515.97
2019-01-18T08:03:42.512Z,97521.80
2019-01-18T08:06:10.654Z,97529.52
2019-01-18T08:08:38.784Z,97524.23
2019-01-18T08:11:06.966Z,97528.99
2019-01-18T08:13:35.100Z,97537.38
2019-01-18T08:16:03.243Z,97544.19
2019-01-18T08:18:31.376Z,97549.42
2019-01-18T08:20:59.513Z,97557.04
2019-01-18T08:23:27.672Z,97562.30
2019-01-18T08:25:55.822Z,97570.27
2019-01-18T08:28:23.956Z,97572.36
2019-01-18T08:30:52.107Z,97576.31
2019-01-18T08:33:20.253Z,97578.27
2019-01-18T08:35:48.393Z,97574.56
2019-01-18T08:38:16.532Z,97580.62
2019-01-18T08:40:44.651Z,97582.38
2019-01-18T08:43:13.836Z,97584.80
2019-01-18T08:45:46.080Z,97592.64
2019-01-18T08:48:14.226Z,97600.41
2019-01-18T08:50:42.379Z,97602.55
2019-01-18T08:53:10.544Z,97603.06
2019-01-18T08:55:38.682Z,97604.72
2019-01-18T08:58:06.823Z,97608.20
2019-01-18T09:00:34.964Z,97616.89
2019-01-18T09:03:03.092Z,97608.41
2019-01-18T09:05:31.223Z,97612.21
2019-01-18T09:07:59.361Z,97619.14
2019-01-18T09:10:27.961Z,97625.52
2019-01-18T09:12:56.092Z,97625.81
2019-01-18T09:15:24.239Z,97623.91
2019-01-18T09:17:52.374Z,97630.06
2019-01-18T09:20:21.553Z,97631.62
2019-01-18T09:22:49.688Z,97638.02
2019-01-18T09:25:17.827Z,97638.70
2019-01-18T09:27:45.953Z,97638.11
2019-01-18T09:30:18.046Z,97643.55
2019-01-18T09:32:46.185Z,97645.19
2019-01-18T09:35:14.786Z,97650.67
2019-01-18T09:37:43.030Z,97650.84
2019-01-18T09:40:15.174Z,97651.72
2019-01-18T09:42:43.448Z,97657.08
2019-01-18T09:45:11.638Z,97661.39
2019-01-18T09:47:39.825Z,97664.06
2019-01-18T09:50:09.811Z,97669.77
2019-01-18T09:52:37.973Z,97655.80
2019-01-18T09:55:06.282Z,97661.66
2019-01-18T09:57:34.473Z,97659.81
2019-01-18T10:00:02.668Z,97662.19
2019-01-18T10:02:30.886Z,97655.73
2019-01-18T10:04:59.061Z,97656.55
2019-01-18T10:07:27.310Z,97655.26
2019-01-18T10:09:55.496Z,97659.14
2019-01-18T10:12:23.786Z,97664.23
2019-01-18T10:17:26.067Z,97654.56
2019-01-18T10:20:13.781Z,97653.86
2019-01-18T10:22:42.010Z,97657.08
2019-01-18T10:25:11.078Z,97655.80
2019-01-18T10:27:39.381Z,97657.05
2019-01-18T10:30:08.889Z,97654.91
2019-01-18T10:32:37.129Z,97649.05
2019-01-18T10:35:05.361Z,97654.40
2019-01-18T10:37:33.575Z,97651.94
2019-01-18T10:40:01.738Z,97650.55
2019-01-18T10:42:29.982Z,97652.15
2019-01-18T10:44:58.152Z,97648.38
2019-01-18T10:47:26.345Z,97654.85
2019-01-18T10:49:54.640Z,97649.26
2019-01-18T10:52:22.792Z,97650.24
2019-01-18T10:54:51.032Z,97654.77
2019-01-18T10:57:19.240Z,97647.56
2019-01-18T10:59:47.559Z,97649.41
2019-01-18T11:02:15.704Z,97649.77
2019-01-18T11:04:43.855Z,97652.92
2019-01-18T11:07:12.000Z,97650.81
2019-01-18T11:09:40.160Z,97658.84
2019-01-18T11:12:08.317Z,97659.08
2019-01-18T11:14:36.479Z,97659.38
2019-01-18T11:17:04.632Z,97664.95
2019-01-18T11:19:32.767Z,97662.56
2019-01-18T11:22:01.003Z,97661.56
2019-01-18T11:24:29.169Z,97662.21
2019-01-18T11:26:57.451Z,97655.58
2019-01-18T11:29:25.612Z,97655.44
2019-01-18T11:31:53.743Z,97644.05
2019-01-18T11:34:21.884Z,97643.51
2019-01-18T11:36:50.169Z,97635.41
2019-01-18T11:39:18.324Z,97644.70
2019-01-18T11:41:46.463Z,97645.31
2019-01-18T11:44:14.608Z,97643.38
2019-01-18T11:46:42.984Z,97640.55
2019-01-18T11:51:58.417Z,97646.95
2019-01-18T11:54:26.548Z,97649.06
2019-01-18T11:56:54.722Z,97646.27
2019-01-18T11:59:22.877Z,97642.12
2019-01-18T12:01:51.026Z,97646.50
2019-01-18T12:04:19.181Z,97642.64
2019-01-18T12:06:47.354Z,97651.27
2019-01-18T12:09:15.464Z,97655.46
2019-01-18T12:11:43.655Z,97558.61
2019-01-18T12:14:11.820Z,97645.40
2019-01-18T12:16:39.942Z,97639.75
2019-01-18T12:19:27.014Z,97639.45
2019-01-18T12:22:14.246Z,97633.74
2019-01-18T12:24:42.420Z,97630.53
2019-01-18T12:27:10.545Z,97625.70
2019-01-18T12:29:57.825Z,97631.33
2019-01-18T12:32:28.865Z,97630.50
2019-01-18T12:34:55.773Z,97622.44
2019-01-18T12:37:23.903Z,97624.55
2019-01-18T12:39:52.047Z,97623.21
2019-01-18T12:42:20.212Z,97628.18
2019-01-18T12:44:48.372Z,97626.88
2019-01-18T12:50:03.672Z,97627.73
2019-01-18T12:52:50.893Z,97624.64
2019-01-18T12:55:19.056Z,97626.16
2019-01-18T13:00:54.820Z,97627.08
2019-01-18T13:03:22.990Z,97624.16
2019-01-18T13:05:52.187Z,97629.81
2019-01-18T13:08:20.339Z,97634.31
2019-01-18T13:10:48.493Z,97628.84
2019-01-18T13:13:16.708Z,97639.48
2019-01-18T13:16:03.958Z,97632.85
2019-01-18T13:18:32.666Z,97634.91
2019-01-18T13:21:00.811Z,97637.11
2019-01-18T13:23:28.943Z,97640.97
2019-01-18T13:25:57.122Z,97638.53
2019-01-18T13:28:25.252Z,97634.62
2019-01-18T13:30:53.396Z,97631.60
2019-01-18T13:33:21.562Z,97635.32
2019-01-18T13:35:49.733Z,97633.15
2019-01-18T13:38:17.862Z,97629.73
2019-01-18T13:40:46.019Z,97634.01
2019-01-18T13:43:33.056Z,97632.88
2019-01-18T13:46:01.244Z,97639.34
2019-01-18T13:48:29.380Z,97640.91
2019-01-18T13:50:57.542Z,97646.56
2019-01-18T13:53:25.752Z,97648.71
2019-01-18T13:55:54.035Z,97650.86
2019-01-18T13:58:22.276Z,97645.50
2019-01-18T14:00:50.461Z,97649.52
2019-01-18T14:03:18.645Z,97650.73
2019-01-18T14:05:46.893Z,97649.16
2019-01-18T14:08:15.041Z,97649.81
2019-01-18T14:10:43.270Z,97648.66
2019-01-18T14:13:11.404Z,97649.39
2019-01-18T14:15:39.543Z,97648.41
2019-01-18T14:18:07.687Z,97651.03
2019-01-18T14:20:35.826Z,97655.34
2019-01-18T14:25:37.413Z,97653.95
2019-01-18T14:28:05.569Z,97658.03
2019-01-18T14:30:35.740Z,97656.69
2019-01-18T14:33:03.536Z,97655.91
2019-01-18T14:35:31.720Z,97663.44
2019-01-18T14:37:59.954Z,97659.63
2019-01-18T14:40:28.096Z,97661.30
2019-01-18T14:42:56.376Z,97658.33
2019-01-18T14:45:28.598Z,97665.61
2019-01-18T14:47:56.757Z,97667.10
2019-01-18T14:50:24.964Z,97669.02
2019-01-18T14:52:53.147Z,97670.94
2019-01-18T14:55:21.341Z,97667.67
2019-01-18T14:57:49.579Z,97670.08
2019-01-18T15:00:19.081Z,97663.98
2019-01-18T15:02:47.834Z,97670.23
2019-01-18T15:05:16.631Z,97668.73
2019-01-18T15:07:44.969Z,97669.36
2019-01-18T15:10:15.273Z,97670.70
2019-01-18T15:12:43.703Z,97666.95
2019-01-18T15:15:12.950Z,97667.52
2019-01-18T15:17:41.100Z,97678.73
2019-01-18T15:20:12.104Z,97677.07
2019-01-18T15:22:40.351Z,97676.34
2019-01-18T15:25:08.623Z,97669.89
2019-01-18T15:27:36.871Z,97674.47
2019-01-18T15:30:06.959Z,97672.09
2019-01-18T15:32:35.397Z,97674.45
2019-01-18T15:35:03.613Z,97677.13
2019-01-18T15:37:31.821Z,97673.22
2019-01-18T15:40:00.139Z,97670.78
2019-01-18T15:42:28.489Z,97675.01
2019-01-18T15:44:56.645Z,97685.48
2019-01-18T15:47:25.140Z,97686.02
2019-01-18T15:49:53.302Z,97684.91
2019-01-18T15:52:40.575Z,97678.22
2019-01-18T15:55:09.078Z,97682.72
2019-01-18T15:57:37.462Z,97689.50
2019-01-18T16:00:06.654Z,97687.89
2019-01-18T16:02:34.855Z,97691.37
2019-01-18T16:05:03.067Z,97681.20
2019-01-18T16:07:50.350Z,97693.06
2019-01-18T16:10:18.577Z,97698.66
2019-01-18T16:12:46.734Z,97695.73
2019-01-18T16:15:15.036Z,97691.91
2019-01-18T16:17:46.039Z,97694.85
2019-01-18T16:20:15.264Z,97695.60
2019-01-18T16:22:43.465Z,97690.76
2019-01-18T16:25:19.112Z,97689.98
2019-01-18T16:27:48.370Z,97690.78
2019-01-18T16:30:17.309Z,97688.91
2019-01-18T16:32:45.480Z,97694.85
2019-01-18T16:35:14.526Z,97690.52
2019-01-18T16:37:42.735Z,97689.98
2019-01-18T16:40:12.596Z,97689.64
2019-01-18T16:42:40.860Z,97691.61
2019-01-18T16:45:09.327Z,97691.72
2019-01-18T16:47:37.482Z,97700.53
2019-01-18T16:50:06.021Z,97695.82
2019-01-18T16:52:34.212Z,97695.45
2019-01-18T16:55:02.384Z,97688.11
2019-01-18T16:57:30.533Z,97687.14
2019-01-18T16:59:58.692Z,97690.17
2019-01-18T17:02:26.856Z,97693.01
2019-01-18T17:04:55.036Z,97695.45
2019-01-18T17:07:23.200Z,97690.86
2019-01-18T17:09:51.356Z,97691.80
2019-01-18T17:12:19.537Z,97693.20
2019-01-18T17:14:47.773Z,97687.44
2019-01-18T17:17:15.996Z,97687.66
2019-01-18T17:19:44.264Z,97690.68
2019-01-18T17:22:12.441Z,97684.28
2019-01-18T17:24:40.736Z,97684.47
2019-01-18T17:27:08.910Z,97682.53
2019-01-18T17:29:37.166Z,97683.72
2019-01-18T17:32:05.456Z,97683.63
2019-01-18T17:34:33.653Z,97678.78
2019-01-18T17:37:30.176Z,97684.73
2019-01-18T17:40:05.285Z,97680.42
2019-01-18T17:42:51.420Z,97682.94
2019-01-18T17:45:47.806Z,97677.00
2019-01-18T17:48:21.637Z,97678.87
2019-01-18T17:50:57.007Z,97678.36
2019-01-18T17:53:31.401Z,97682.89
2019-01-18T17:56:15.288Z,97690.39
2019-01-18T17:59:18.044Z,97684.89
2019-01-18T18:02:02.524Z,97690.23
2019-01-18T18:04:43.452Z,97691.27
2019-01-18T18:07:19.017Z,97690.76
2019-01-18T18:10:09.383Z,97696.41
2019-01-18T18:12:42.501Z,97689.98
2019-01-18T18:15:32.849Z,97692.95
2019-01-18T18:18:26.038Z,97683.10
2019-01-18T18:21:15.013Z,97687.41
2019-01-18T18:23:55.680Z,97685.91
2019-01-18T18:26:34.445Z,97683.77
2019-01-18T18:29:16.001Z,97688.03
2019-01-18T18:32:06.052Z,97684.87
2019-01-18T18:34:42.018Z,97690.17
2019-01-18T18:37:41.405Z,97692.26
2019-01-18T18:40:27.220Z,97688.59
2019-01-18T18:43:00.205Z,97696.56
2019-01-18T18:46:02.549Z,97694.34
2019-01-18T18:48:34.117Z,97696.67
2019-01-18T18:51:20.305Z,97700.42
2019-01-18T18:54:06.489Z,97704.60
2019-01-18T18:56:48.316Z,97691.51
2019-01-18T18:59:24.278Z,97696.44
2019-01-18T19:02:23.880Z,97697.67
2019-01-18T19:05:04.223Z,97696.73
2019-01-18T19:07:38.061Z,97695.23
2019-01-18T19:10:16.881Z,97693.14
2019-01-18T19:12:58.589Z,97693.14
2019-01-18T19:15:47.464Z,97690.92
2019-01-18T19:18:34.733Z,97692.34
2019-01-18T19:21:37.781Z,97688.77
2019-01-18T19:24:15.953Z,97684.44
2019-01-18T19:27:15.379Z,97687.14
2019-01-18T19:29:55.893Z,97682.80
2019-01-18T19:32:42.098Z,97606.71
2019-01-18T19:35:41.937Z,97687.95
2019-01-18T19:38:25.438Z,97683.02
2019-01-18T19:41:03.634Z,97685.56
2019-01-18T19:44:06.199Z,97678.95
2019-01-18T19:46:42.542Z,97676.94
2019-01-18T19:49:32.048Z,97660.66
2019-01-18T19:52:08.165Z,97667.27
2019-01-18T19:55:01.276Z,97668.37
2019-01-18T19:57:48.625Z,97661.84
2019-01-18T20:00:35.946Z,97672.84
2019-01-18T20:03:23.221Z,97662.27
2019-01-18T20:06:09.258Z,97669.09
2019-01-18T20:08:40.317Z,97659.14
2019-01-18T20:11:26.574Z,97661.06
2019-01-18T20:14:03.200Z,97661.02
2019-01-18T20:16:50.502Z,97655.22
2019-01-18T20:19:53.249Z,97652.92
2019-01-18T20:22:25.870Z,97659.97
2019-01-18T20:25:13.153Z,97654.61
2019-01-18T20:27:59.483Z,97656.94
2019-01-18T20:30:43.980Z,97657.29
2019-01-18T20:33:22.520Z,97656.94
2019-01-18T20:36:09.855Z,97663.25
2019-01-18T20:38:57.158Z,97663.05
2019-01-18T20:41:43.186Z,97661.70
2019-01-18T20:44:18.468Z,97660.42
2019-01-18T20:47:08.868Z,97657.36
2019-01-18T20:49:59.021Z,97663.34
2019-01-18T20:52:46.306Z,97657.88
2019-01-18T20:55:20.621Z,97657.95
2019-01-18T20:58:10.914Z,97656.62
2019-01-18T21:00:42.129Z,97656.02
2019-01-18T21:03:17.718Z,97381.47
2019-01-18T21:06:23.412Z,97655.52
2019-01-18T21:08:57.754Z,97659.77
2019-01-18T21:11:38.282Z,97657.05
2019-01-18T21:14:20.904Z,97653.78
2019-01-18T21:16:58.400Z,97648.88
2019-01-18T21:19:51.731Z,97647.78
2019-01-18T21:22:39.072Z,97645.61
2019-01-18T21:25:28.350Z,97647.24
2019-01-18T21:28:30.871Z,97643.39
2019-01-18T21:31:29.850Z,97645.24
2019-01-18T21:34:18.754Z,97647.92
2019-01-18T21:37:09.248Z,97647.33
2019-01-18T21:39:55.503Z,97648.16
2019-01-18T21:42:36.262Z,97649.77
2019-01-18T21:45:26.313Z,97652.33
2019-01-18T21:48:29.033Z,97648.43
2019-01-18T21:51:19.244Z,97652.39
2019-01-18T21:53:50.643Z,97650.00
2019-01-18T21:56:40.953Z,97650.20
2019-01-18T21:59:13.022Z,97658.63
2019-01-18T22:01:54.762Z,97655.42
2019-01-18T22:04:40.328Z,97656.01
2019-01-18T22:07:26.268Z,97656.78
2019-01-18T22:10:05.078Z,97656.33
2019-01-18T22:13:07.580Z,97660.56
2019-01-18T22:15:53.526Z,97664.33
2019-01-18T22:18:59.189Z,97661.84
2019-01-18T22:21:49.565Z,97662.64
2019-01-18T22:24:33.761Z,97664.41
2019-01-18T22:27:11.442Z,97656.67
2019-01-18T22:29:54.718Z,97655.26
2019-01-18T22:32:30.384Z,97661.30
2019-01-18T22:35:12.718Z,97654.85
2019-01-18T22:37:53.573Z,97657.80
2019-01-18T22:40:59.337Z,97647.68
2019-01-18T22:43:46.664Z,97648.96
2019-01-18T22:46:32.684Z,97645.00
2019-01-18T22:49:25.968Z,97648.30
2019-01-18T22:52:01.951Z,97648.59
2019-01-18T22:54:58.334Z,97648.06
2019-01-18T22:57:38.632Z,97643.53
2019-01-18T23:00:36.363Z,97650.98
2019-01-18T23:03:11.037Z,97651.45
2019-01-18T23:05:46.261Z,97653.47
2019-01-18T23:08:32.343Z,97647.77
2019-01-18T23:11:22.007Z,97638.16
2019-01-18T23:13:56.880Z,97634.48
2019-01-18T23:16:50.115Z,97623.43
2019-01-18T23:19:46.340Z,97622.92
2019-01-18T23:22:27.047Z,97618.91
2019-01-18T23:25:02.572Z,97607.27
2019-01-18T23:27:48.510Z,97605.18
2019-01-18T23:30:22.327Z,97605.63
2019-01-18T23:32:54.665Z,97603.25
2019-01-18T23:35:42.048Z,97601.03
2019-01-18T23:38:17.634Z,97596.80
2019-01-18T23:40:58.122Z,97590.76
2019-01-18T23:43:29.459Z,97586.00
2019-01-18T23:46:15.407Z,97588.08
2019-01-18T23:49:01.566Z,97589.42
2019-01-18T23:51:36.365Z,97578.72
2019-01-18T23:54:13.086Z,97581.33
2019-01-18T23:56:46.421Z,97584.84
2019-01-18T23:59:37.748Z,97570.27
